aviador You're here:

DAUA Decoded Metar

ADRAR in ALGERIA
Report Time2017-11-20 21:00:00
UTC Time2017-11-20 21:20:52
Flight Rules vfr VFR
Wind030° at 13 kt
W.Decomp.*RWY 04: 12.8 kt HW 2 kt LCW
W.Rank030° ranks 1
Current wind is above 030° avg. (11.4)
Visibility9999 m
Phenomena:N/A
Clouds:N/A
Expected CloudBase > 6,400 ft AGL from Temp-Dew spread
CeilingNone
Temp17°C (ISA +4)
Dew Point01°C (34% RH)
AAT10.5°C
QNH1020 hPa
Density Alt1,158 ft
Elevation863 ft
Report Wrong Elevation
Raw Report
METAR DAUA 202100Z 03013KT CAVOK 17/01 Q1020=

Extra information for DAUA:More info

Metar Taf Metar & Taf Last 4 Metars F.Rules Stats Wind Profile Meteogram Temp Stats Airport Information Weather charts Add Link Nearby VenuesMetar ALERT Operation Metar Decoded Social comments